Time;durP1;ratioP1;P1;durP2;ratioP2;P2;SDS_P1;SDS_P2;PMS_P1;PMS_P2;Temp;Humidity;BMP_temperature;BMP_pressure;BME280_temperature;BME280_humidity;BME280_pressure;Samples;Min_cycle;Max_cycle;Signal;HPM_P1;HPM_P2
2023/11/21 00:00:54;;;;;;;4.83;2.53;;;15.70;60.00;;;;;;5033222;28;20416;-52
2023/11/21 00:03:23;;;;;;;7.83;2.17;;;15.60;61.30;;;;;;5041813;28;20172;-53
2023/11/21 00:05:48;;;;;;;3.00;2.50;;;15.60;61.50;;;;;;5033641;28;20219;-53
2023/11/21 00:08:14;;;;;;;4.90;2.50;;;15.60;62.20;;;;;;5034223;28;20506;-55
2023/11/21 00:10:40;;;;;;;4.10;2.43;;;15.70;61.10;;;;;;5036696;28;20268;-48
2023/11/21 00:13:05;;;;;;;3.80;1.77;;;15.80;61.10;;;;;;5035432;28;20219;-49
2023/11/21 00:15:31;;;;;;;6.67;2.43;;;15.90;61.10;;;;;;5041178;28;20193;-52
2023/11/21 00:17:56;;;;;;;2.60;1.90;;;15.90;60.90;;;;;;5038040;28;20217;-53
2023/11/21 00:20:22;;;;;;;5.03;1.77;;;15.80;60.00;;;;;;5044554;28;20255;-52
2023/11/21 00:22:47;;;;;;;3.80;1.80;;;15.80;60.10;;;;;;5039984;28;20213;-50
2023/11/21 00:25:15;;;;;;;5.03;2.10;;;15.90;60.70;;;;;;5034276;28;20193;-52
2023/11/21 00:27:41;;;;;;;3.40;1.80;;;16.00;61.20;;;;;;5041984;28;20196;-49
2023/11/21 00:30:08;;;;;;;7.47;2.70;;;16.10;60.20;;;;;;5034631;28;20558;-51
2023/11/21 00:32:35;;;;;;;5.73;2.00;;;16.10;60.50;;;;;;5035645;28;20451;-51
2023/11/21 00:35:01;;;;;;;2.60;1.70;;;16.10;59.60;;;;;;5035525;28;20448;-53
2023/11/21 00:37:27;;;;;;;5.33;2.37;;;16.20;59.30;;;;;;5039245;28;20474;-52
2023/11/21 00:39:52;;;;;;;4.93;1.90;;;16.30;59.40;;;;;;5039168;28;20462;-49
2023/11/21 00:42:18;;;;;;;4.50;2.00;;;16.40;59.20;;;;;;5035722;28;20224;-50
2023/11/21 00:44:43;;;;;;;4.63;2.13;;;16.40;59.00;;;;;;5044991;28;20184;-52
2023/11/21 00:47:09;;;;;;;5.10;2.13;;;16.50;59.00;;;;;;5045919;28;20664;-54
2023/11/21 00:49:34;;;;;;;2.90;2.30;;;16.50;59.00;;;;;;5045803;28;20220;-49
2023/11/21 00:52:00;;;;;;;4.83;2.10;;;16.50;58.80;;;;;;5037637;28;20627;-51
2023/11/21 00:54:27;;;;;;;2.23;1.90;;;16.50;58.90;;;;;;5038987;28;20183;-53
2023/11/21 00:56:52;;;;;;;5.93;2.10;;;16.60;59.00;;;;;;5032345;28;20190;-50
2023/11/21 00:59:18;;;;;;;5.50;2.87;;;16.70;58.60;;;;;;5032939;28;20464;-52
2023/11/21 01:01:44;;;;;;;4.23;1.93;;;16.60;58.90;;;;;;5036575;28;20189;-55
2023/11/21 01:04:10;;;;;;;8.03;2.17;;;16.60;58.90;;;;;;5041399;28;20208;-49
2023/11/21 01:06:35;;;;;;;3.77;2.60;;;16.40;58.50;;;;;;5038577;28;20431;-49
2023/11/21 01:09:01;;;;;;;3.13;1.90;;;16.30;58.90;;;;;;5039662;28;20956;-51
2023/11/21 01:11:26;;;;;;;6.90;2.17;;;16.40;59.20;;;;;;5036625;28;20196;-50
2023/11/21 01:13:53;;;;;;;3.63;2.23;;;16.50;59.10;;;;;;5036964;28;20185;-50
2023/11/21 01:16:18;;;;;;;6.83;2.00;;;16.50;58.90;;;;;;5042588;28;20189;-49
2023/11/21 01:18:44;;;;;;;4.03;2.30;;;16.40;58.30;;;;;;5039363;28;20479;-51
2023/11/21 01:21:10;;;;;;;4.80;2.07;;;16.20;58.00;;;;;;5045992;28;20194;-51
2023/11/21 01:23:35;;;;;;;4.27;2.10;;;16.00;58.80;;;;;;5034854;28;20192;-49
2023/11/21 01:26:01;;;;;;;3.90;1.83;;;16.10;59.20;;;;;;5031672;28;20247;-49
2023/11/21 01:28:26;;;;;;;4.70;2.40;;;16.10;59.00;;;;;;5034847;28;20221;-50
2023/11/21 01:30:56;;;;;;;5.23;2.30;;;16.20;59.10;;;;;;5033720;28;20189;-52
2023/11/21 01:33:22;;;;;;;5.60;2.27;;;16.00;58.90;;;;;;5038632;28;20726;-49
2023/11/21 01:35:47;;;;;;;4.60;2.00;;;15.90;59.50;;;;;;5033512;28;20428;-52
2023/11/21 01:38:14;;;;;;;3.10;1.67;;;15.50;59.90;;;;;;5034841;28;20467;-49
2023/11/21 01:40:40;;;;;;;6.90;1.83;;;15.50;60.60;;;;;;5035326;28;20596;-51
2023/11/21 01:43:06;;;;;;;3.73;1.90;;;15.00;62.00;;;;;;5041936;28;20511;-54
2023/11/21 01:45:33;;;;;;;1.43;1.33;;;14.80;63.30;;;;;;5036120;28;20231;-51
2023/11/21 01:48:00;;;;;;;3.23;1.63;;;14.70;64.10;;;;;;5046512;28;20667;-50
2023/11/21 01:50:26;;;;;;;3.40;1.63;;;14.70;64.10;;;;;;5043673;28;20454;-53
2023/11/21 01:52:52;;;;;;;2.77;2.10;;;14.70;64.70;;;;;;5033604;28;20509;-49
2023/11/21 01:55:18;;;;;;;4.33;1.60;;;14.70;64.70;;;;;;5034796;28;20205;-53
2023/11/21 01:57:46;;;;;;;5.40;1.60;;;14.80;64.00;;;;;;5033138;28;20534;-52
2023/11/21 02:00:15;;;;;;;3.87;1.70;;;15.00;63.80;;;;;;5041834;28;20460;-50
2023/11/21 02:02:47;;;;;;;2.57;1.47;;;15.10;63.20;;;;;;5034895;28;20942;-53
2023/11/21 02:05:15;;;;;;;2.10;1.40;;;15.00;63.30;;;;;;5041063;28;20772;-50
2023/11/21 02:07:42;;;;;;;3.00;1.57;;;15.10;63.30;;;;;;5033446;28;20440;-52
2023/11/21 02:10:09;;;;;;;5.23;1.97;;;15.10;63.20;;;;;;5036674;28;20526;-53
2023/11/21 02:12:35;;;;;;;4.60;1.80;;;15.10;63.30;;;;;;5031276;28;20443;-50
2023/11/21 02:15:09;;;;;;;4.17;1.70;;;15.00;63.00;;;;;;5036272;28;20439;-52
2023/11/21 02:17:38;;;;;;;4.50;1.90;;;15.00;63.60;;;;;;5043785;28;20486;-53
2023/11/21 02:20:06;;;;;;;2.60;1.50;;;15.00;63.10;;;;;;5032782;28;20456;-53
2023/11/21 02:22:37;;;;;;;5.93;1.70;;;15.00;62.90;;;;;;5030617;28;20864;-50
2023/11/21 02:25:03;;;;;;;3.03;1.57;;;15.10;63.00;;;;;;5039821;28;20443;-47
2023/11/21 02:27:29;;;;;;;2.40;1.60;;;15.10;62.80;;;;;;5038120;28;20427;-48
2023/11/21 02:29:54;;;;;;;3.90;1.87;;;15.10;62.40;;;;;;5035780;28;20466;-51
2023/11/21 02:32:22;;;;;;;3.50;1.80;;;15.00;62.90;;;;;;5044166;28;20187;-49
2023/11/21 02:34:48;;;;;;;3.80;2.03;;;15.00;63.00;;;;;;5032909;28;20572;-49
2023/11/21 02:37:14;;;;;;;1.77;1.63;;;15.10;63.40;;;;;;5030049;28;20479;-49
2023/11/21 02:39:39;;;;;;;4.70;1.53;;;15.10;63.30;;;;;;5031702;28;20287;-47
2023/11/21 02:42:05;;;;;;;5.10;2.10;;;15.20;63.40;;;;;;5037950;28;20184;-47
2023/11/21 02:44:30;;;;;;;2.67;1.50;;;15.20;63.50;;;;;;5030670;28;20196;-46
2023/11/21 02:46:57;;;;;;;2.10;1.43;;;15.20;63.70;;;;;;5032588;28;20196;-49
2023/11/21 02:49:23;;;;;;;1.87;1.23;;;15.10;64.30;;;;;;5035651;28;20288;-49
2023/11/21 02:51:49;;;;;;;4.50;1.43;;;15.10;63.40;;;;;;5034241;28;20573;-47
2023/11/21 02:54:14;;;;;;;2.60;1.40;;;15.10;63.10;;;;;;5045616;28;20559;-48
2023/11/21 02:56:40;;;;;;;2.67;1.30;;;15.10;62.80;;;;;;5034728;28;20201;-49
2023/11/21 02:59:05;;;;;;;3.83;1.67;;;15.20;62.90;;;;;;5040747;28;20707;-47
2023/11/21 03:01:31;;;;;;;2.17;1.30;;;15.00;62.50;;;;;;5036990;28;20188;-48
2023/11/21 03:03:57;;;;;;;1.83;1.30;;;15.10;62.50;;;;;;5035767;28;20197;-47
2023/11/21 03:06:23;;;;;;;2.40;1.57;;;15.10;62.50;;;;;;5037211;28;20446;-48
2023/11/21 03:08:49;;;;;;;3.37;1.43;;;15.10;62.50;;;;;;5035326;28;20303;-47
2023/11/21 03:11:14;;;;;;;1.60;1.20;;;15.10;62.50;;;;;;5036830;28;20531;-51
2023/11/21 03:13:43;;;;;;;2.37;1.50;;;15.00;62.70;;;;;;5041444;28;20191;-47
2023/11/21 03:16:10;;;;;;;2.03;1.20;;;15.00;62.60;;;;;;5033774;28;20213;-46
2023/11/21 03:18:37;;;;;;;3.43;1.60;;;15.00;62.50;;;;;;5042974;28;20507;-48
2023/11/21 03:21:03;;;;;;;3.43;1.50;;;15.10;62.40;;;;;;5035548;28;20508;-49
2023/11/21 03:23:28;;;;;;;2.70;1.00;;;15.10;62.40;;;;;;5036075;28;20450;-49
2023/11/21 03:25:54;;;;;;;5.37;1.33;;;15.10;62.00;;;;;;5037413;28;20444;-47
2023/11/21 03:28:19;;;;;;;2.33;1.53;;;15.10;62.20;;;;;;5043268;28;20207;-47
2023/11/21 03:30:45;;;;;;;2.30;1.07;;;15.00;62.40;;;;;;5046075;28;20192;-48
2023/11/21 03:33:10;;;;;;;2.97;1.30;;;15.10;62.60;;;;;;5042049;28;20187;-47
2023/11/21 03:35:36;;;;;;;1.53;1.20;;;15.10;62.50;;;;;;5049251;28;20177;-47
2023/11/21 03:38:02;;;;;;;2.17;1.60;;;15.10;62.30;;;;;;5040088;28;20263;-48
2023/11/21 03:40:27;;;;;;;3.40;1.30;;;15.20;62.20;;;;;;5042156;28;20287;-49
2023/11/21 03:42:53;;;;;;;4.93;1.20;;;15.10;62.00;;;;;;5033496;28;20184;-49
2023/11/21 03:45:18;;;;;;;2.73;1.40;;;15.10;62.10;;;;;;5035290;28;20196;-47
2023/11/21 03:47:44;;;;;;;2.00;1.63;;;15.00;62.20;;;;;;5033542;28;20207;-48
2023/11/21 03:50:10;;;;;;;2.70;1.13;;;15.00;62.40;;;;;;5037068;28;20201;-50
2023/11/21 03:52:35;;;;;;;2.33;1.20;;;15.00;62.40;;;;;;5047984;28;20670;-50
2023/11/21 03:55:02;;;;;;;2.43;1.10;;;15.10;62.30;;;;;;5042123;28;20192;-52
2023/11/21 03:57:28;;;;;;;2.50;1.30;;;15.10;62.30;;;;;;5046243;28;20216;-47
2023/11/21 03:59:53;;;;;;;2.43;1.10;;;15.10;62.50;;;;;;5039950;28;20987;-48
2023/11/21 04:02:19;;;;;;;1.63;1.00;;;15.10;62.20;;;;;;5032794;28;20598;-49
2023/11/21 04:04:45;;;;;;;2.50;1.20;;;15.10;62.00;;;;;;5039178;28;20193;-49
2023/11/21 04:07:11;;;;;;;2.17;1.23;;;15.10;61.70;;;;;;5038861;28;20239;-49
2023/11/21 04:09:36;;;;;;;2.57;1.17;;;15.10;61.60;;;;;;5034051;28;20208;-48
2023/11/21 04:12:02;;;;;;;1.60;1.50;;;15.10;61.80;;;;;;5037681;28;20440;-49
2023/11/21 04:14:28;;;;;;;1.43;1.00;;;15.20;62.00;;;;;;5038992;28;20180;-46
2023/11/21 04:16:54;;;;;;;1.93;1.20;;;15.10;62.00;;;;;;5038617;28;20435;-48
2023/11/21 04:19:19;;;;;;;3.67;1.40;;;15.10;62.30;;;;;;5044418;28;20583;-49
2023/11/21 04:21:46;;;;;;;1.80;1.20;;;15.10;62.60;;;;;;5045959;28;20195;-50
2023/11/21 04:24:11;;;;;;;1.93;1.10;;;15.10;62.30;;;;;;5045774;28;20447;-51
2023/11/21 04:26:37;;;;;;;1.07;0.97;;;15.10;62.50;;;;;;5047095;28;20762;-50
2023/11/21 04:29:03;;;;;;;1.33;0.90;;;15.10;62.60;;;;;;5038092;28;20278;-50
2023/11/21 04:31:28;;;;;;;1.37;1.27;;;15.10;62.80;;;;;;5037542;28;20180;-49
2023/11/21 04:33:54;;;;;;;2.20;2.10;;;15.20;62.90;;;;;;5034505;28;20177;-47
2023/11/21 04:36:20;;;;;;;3.03;1.60;;;15.10;63.00;;;;;;5040660;28;20189;-51
2023/11/21 04:38:45;;;;;;;2.97;1.60;;;15.00;63.40;;;;;;5037123;28;20216;-50
2023/11/21 04:41:11;;;;;;;1.73;1.20;;;15.00;63.80;;;;;;5035640;28;20529;-48
2023/11/21 04:43:37;;;;;;;3.73;1.27;;;15.00;63.90;;;;;;5032850;28;20249;-50
2023/11/21 04:46:03;;;;;;;2.03;1.27;;;15.00;63.90;;;;;;5035923;28;20444;-49
2023/11/21 04:48:29;;;;;;;1.63;1.13;;;15.00;63.70;;;;;;5036878;28;20212;-49
2023/11/21 04:50:54;;;;;;;2.27;0.97;;;15.00;64.10;;;;;;5030159;28;20235;-47
2023/11/21 04:53:20;;;;;;;2.80;1.20;;;14.90;64.20;;;;;;5038511;28;20268;-51
2023/11/21 04:55:45;;;;;;;1.83;1.00;;;15.00;64.40;;;;;;5041702;28;20284;-48
2023/11/21 04:58:12;;;;;;;2.53;0.93;;;15.00;64.40;;;;;;5044809;28;20240;-52
2023/11/21 05:00:37;;;;;;;2.50;1.40;;;15.00;64.30;;;;;;5043610;28;20189;-48
2023/11/21 05:03:04;;;;;;;2.70;1.23;;;15.00;64.60;;;;;;5040643;28;20442;-48
2023/11/21 05:05:30;;;;;;;3.47;0.93;;;15.00;64.80;;;;;;5039746;28;20185;-48
2023/11/21 05:07:55;;;;;;;1.20;0.80;;;14.90;64.90;;;;;;5040656;28;20450;-48
2023/11/21 05:10:22;;;;;;;2.53;0.97;;;15.00;64.90;;;;;;5037005;28;20215;-48
2023/11/21 05:12:49;;;;;;;1.87;1.40;;;15.00;64.60;;;;;;5036164;28;20706;-49
2023/11/21 05:15:17;;;;;;;7.90;4.47;;;15.00;64.60;;;;;;5034938;28;20530;-48
2023/11/21 05:17:43;;;;;;;4.67;3.43;;;15.00;64.40;;;;;;5042045;28;20481;-47
2023/11/21 05:20:11;;;;;;;3.00;2.30;;;14.90;64.30;;;;;;5034777;28;20460;-50
2023/11/21 05:22:37;;;;;;;1.93;1.50;;;14.90;64.60;;;;;;5042181;28;20820;-51
2023/11/21 05:25:03;;;;;;;3.47;2.10;;;14.90;64.60;;;;;;5034063;28;20428;-48
2023/11/21 05:27:33;;;;;;;1.80;1.70;;;14.90;64.70;;;;;;5032302;28;20255;-47
2023/11/21 05:29:58;;;;;;;2.90;1.50;;;14.80;64.80;;;;;;5042368;28;20466;-48
2023/11/21 05:32:25;;;;;;;3.27;1.60;;;14.90;64.90;;;;;;5025035;28;20808;-48
2023/11/21 05:34:51;;;;;;;1.93;1.50;;;14.90;64.80;;;;;;5036066;28;20268;-48
2023/11/21 05:37:17;;;;;;;3.00;1.50;;;14.90;64.60;;;;;;5032018;28;20507;-49
2023/11/21 05:39:43;;;;;;;4.20;1.37;;;14.90;64.30;;;;;;5034080;28;20507;-50
2023/11/21 05:42:10;;;;;;;1.20;1.10;;;14.80;64.30;;;;;;5036804;28;20213;-46
2023/11/21 05:44:36;;;;;;;1.43;1.33;;;14.70;63.50;;;;;;5034247;28;20193;-47
2023/11/21 05:47:03;;;;;;;2.93;1.40;;;14.70;63.80;;;;;;5032564;28;20427;-49
2023/11/21 05:49:29;;;;;;;1.50;1.40;;;14.70;63.70;;;;;;5043338;28;20450;-47
2023/11/21 05:51:56;;;;;;;1.47;1.20;;;14.80;63.80;;;;;;5031789;28;20430;-49
2023/11/21 05:54:23;;;;;;;1.80;1.17;;;14.80;63.90;;;;;;5034246;28;20530;-48
2023/11/21 05:56:49;;;;;;;1.40;1.23;;;14.70;63.70;;;;;;5030007;28;20436;-46
2023/11/21 05:59:15;;;;;;;2.20;1.30;;;14.70;63.80;;;;;;5035283;28;20536;-48
2023/11/21 06:01:40;;;;;;;4.93;1.50;;;14.70;63.60;;;;;;5045508;28;20188;-49
2023/11/21 06:04:08;;;;;;;1.17;1.07;;;14.80;63.50;;;;;;5035494;28;20648;-49
2023/11/21 06:06:33;;;;;;;1.47;1.27;;;14.80;63.50;;;;;;5043255;28;20181;-51
2023/11/21 06:08:59;;;;;;;1.03;1.03;;;14.80;63.70;;;;;;5043256;28;20452;-47
2023/11/21 06:11:24;;;;;;;2.10;1.30;;;14.80;63.80;;;;;;5036637;28;20189;-48
2023/11/21 06:13:50;;;;;;;2.50;1.60;;;14.80;63.80;;;;;;5038451;28;20187;-47
2023/11/21 06:16:18;;;;;;;1.87;1.37;;;14.80;63.90;;;;;;5039298;28;20192;-49
2023/11/21 06:18:44;;;;;;;1.80;1.07;;;14.80;64.00;;;;;;5033334;28;20805;-48
2023/11/21 06:21:10;;;;;;;3.30;1.40;;;14.80;64.30;;;;;;5036022;28;20432;-47
2023/11/21 06:23:36;;;;;;;2.50;1.30;;;14.80;64.50;;;;;;5037213;28;20465;-48
2023/11/21 06:26:01;;;;;;;1.67;1.30;;;14.80;64.40;;;;;;5043818;28;20791;-48
2023/11/21 06:28:27;;;;;;;2.83;1.73;;;14.70;64.30;;;;;;5037610;28;20564;-50
2023/11/21 06:30:53;;;;;;;1.40;1.30;;;14.70;64.40;;;;;;5035696;28;20234;-48
2023/11/21 06:33:18;;;;;;;1.57;1.43;;;14.70;64.10;;;;;;5041566;28;20185;-49
2023/11/21 06:35:44;;;;;;;2.23;1.50;;;14.70;64.10;;;;;;5032759;28;20188;-48
2023/11/21 06:38:10;;;;;;;3.33;1.93;;;14.80;64.00;;;;;;5036143;28;20212;-48
2023/11/21 06:40:36;;;;;;;3.00;1.67;;;14.80;64.80;;;;;;5033304;28;20185;-50
2023/11/21 06:43:01;;;;;;;1.33;1.23;;;14.80;64.30;;;;;;5038403;28;20189;-47
2023/11/21 06:45:27;;;;;;;2.33;1.53;;;14.90;64.40;;;;;;5037130;28;20550;-49
2023/11/21 06:47:53;;;;;;;2.60;1.43;;;15.00;64.10;;;;;;5040721;28;20185;-49
2023/11/21 06:50:18;;;;;;;1.87;1.37;;;15.00;65.30;;;;;;5031860;28;20236;-49
2023/11/21 06:52:44;;;;;;;2.53;1.80;;;15.10;64.00;;;;;;5032770;28;20346;-48
2023/11/21 06:55:10;;;;;;;1.73;1.63;;;15.20;63.70;;;;;;5032924;28;20193;-49
2023/11/21 06:57:36;;;;;;;2.23;1.80;;;15.20;63.10;;;;;;5038468;28;20299;-52
2023/11/21 07:00:02;;;;;;;1.97;1.77;;;15.30;63.00;;;;;;5033642;28;20508;-53
2023/11/21 07:02:28;;;;;;;2.93;1.93;;;15.40;62.80;;;;;;5039059;28;20446;-50
2023/11/21 07:04:54;;;;;;;2.47;1.70;;;15.40;62.40;;;;;;5035154;28;20436;-49
2023/11/21 07:07:19;;;;;;;2.10;1.90;;;15.50;62.50;;;;;;5032867;28;20457;-49
2023/11/21 07:09:45;;;;;;;3.77;2.33;;;15.50;62.40;;;;;;5032277;28;20755;-49
2023/11/21 07:12:11;;;;;;;1.90;1.80;;;15.60;62.20;;;;;;5036034;28;20731;-49
2023/11/21 07:14:39;;;;;;;2.37;2.17;;;15.60;61.90;;;;;;5037325;28;20260;-50
2023/11/21 07:17:04;;;;;;;3.53;1.97;;;15.60;61.90;;;;;;5033646;28;20197;-51
2023/11/21 07:19:30;;;;;;;2.20;2.00;;;15.50;62.00;;;;;;5030725;28;20446;-53
2023/11/21 07:21:56;;;;;;;2.70;1.23;;;15.50;62.30;;;;;;5033608;28;20317;-47
2023/11/21 07:24:22;;;;;;;3.20;1.80;;;15.50;62.60;;;;;;5046654;28;20185;-51
2023/11/21 07:26:48;;;;;;;1.97;1.60;;;15.60;63.30;;;;;;5034493;28;20196;-50
2023/11/21 07:29:14;;;;;;;2.60;1.57;;;15.60;62.00;;;;;;5034184;28;20480;-45
2023/11/21 07:31:41;;;;;;;3.63;1.80;;;15.70;62.00;;;;;;5040246;28;20688;-49
2023/11/21 07:34:08;;;;;;;2.47;2.10;;;15.70;61.60;;;;;;5039365;28;20440;-49
2023/11/21 07:36:33;;;;;;;2.03;1.83;;;15.70;61.50;;;;;;5043497;28;20427;-50
2023/11/21 07:38:59;;;;;;;2.03;1.20;;;15.70;61.50;;;;;;5041441;28;20479;-50
2023/11/21 07:41:24;;;;;;;2.27;1.80;;;15.60;61.50;;;;;;5039096;28;20209;-50
2023/11/21 07:43:50;;;;;;;1.80;1.50;;;15.60;61.90;;;;;;5041991;28;20260;-49
2023/11/21 07:46:15;;;;;;;2.20;1.13;;;15.60;62.20;;;;;;5036962;28;20209;-48
2023/11/21 07:48:42;;;;;;;2.63;1.60;;;15.60;62.30;;;;;;5037646;28;20205;-50
2023/11/21 07:51:08;;;;;;;1.73;1.30;;;15.60;62.50;;;;;;5035678;28;20195;-50
2023/11/21 07:53:35;;;;;;;2.00;1.40;;;15.60;62.70;;;;;;5034220;28;20535;-49
2023/11/21 07:56:04;;;;;;;2.37;1.40;;;15.60;62.90;;;;;;5033224;28;20454;-50
2023/11/21 07:58:30;;;;;;;2.23;1.20;;;15.70;63.00;;;;;;5037418;28;20487;-49
2023/11/21 08:00:56;;;;;;;1.73;1.63;;;15.70;62.80;;;;;;5030788;28;21043;-47
2023/11/21 08:03:22;;;;;;;7.53;1.67;;;15.80;62.70;;;;;;5038452;28;20542;-49
2023/11/21 08:05:47;;;;;;;2.03;1.83;;;15.80;62.50;;;;;;5040288;28;20197;-50
2023/11/21 08:08:13;;;;;;;4.27;2.30;;;15.80;62.40;;;;;;5036523;28;20181;-47
2023/11/21 08:10:38;;;;;;;3.60;2.30;;;15.90;62.50;;;;;;5035335;28;20185;-46
2023/11/21 08:13:06;;;;;;;1.90;1.67;;;15.90;62.30;;;;;;5031189;28;20746;-50
2023/11/21 08:15:32;;;;;;;1.70;1.40;;;15.90;62.50;;;;;;5032281;28;20196;-52
2023/11/21 08:17:58;;;;;;;2.13;1.40;;;16.00;62.50;;;;;;5029084;28;20471;-48
2023/11/21 08:20:24;;;;;;;2.43;1.67;;;16.00;62.60;;;;;;5032926;28;20215;-52
2023/11/21 08:22:52;;;;;;;2.63;2.37;;;16.00;62.30;;;;;;5030346;28;20443;-47
2023/11/21 08:25:19;;;;;;;2.17;1.70;;;16.00;62.00;;;;;;5037531;28;20440;-46
2023/11/21 08:27:45;;;;;;;2.30;1.70;;;16.00;62.20;;;;;;5023401;28;20461;-51
2023/11/21 08:30:13;;;;;;;3.60;1.83;;;16.00;61.90;;;;;;5035116;28;20459;-50
2023/11/21 08:32:39;;;;;;;2.90;1.50;;;16.00;62.30;;;;;;5031777;28;20899;-49
2023/11/21 08:35:05;;;;;;;2.20;2.00;;;16.10;61.90;;;;;;5028928;28;20435;-47
2023/11/21 08:37:33;;;;;;;4.00;1.93;;;16.10;61.40;;;;;;5029709;28;20743;-49
2023/11/21 08:40:02;;;;;;;2.30;1.93;;;16.10;61.30;;;;;;5039316;28;20490;-53
2023/11/21 08:42:29;;;;;;;1.90;1.70;;;16.10;61.40;;;;;;5043100;28;20443;-48
2023/11/21 08:44:58;;;;;;;2.67;1.90;;;16.00;61.60;;;;;;5044311;28;20423;-49
2023/11/21 08:47:24;;;;;;;3.03;1.87;;;16.10;62.10;;;;;;5044474;28;20453;-50
2023/11/21 08:49:52;;;;;;;1.70;1.60;;;16.10;62.40;;;;;;5042393;28;20542;-52
2023/11/21 08:52:18;;;;;;;1.97;1.80;;;16.10;62.20;;;;;;5031177;28;20433;-49
2023/11/21 08:54:45;;;;;;;2.40;1.60;;;16.20;62.20;;;;;;5033805;28;20452;-49
2023/11/21 08:57:10;;;;;;;4.13;1.53;;;16.20;61.70;;;;;;5029601;28;20184;-52
2023/11/21 08:59:36;;;;;;;2.33;1.90;;;16.30;61.60;;;;;;5031793;28;20822;-50
2023/11/21 09:02:02;;;;;;;2.10;1.90;;;16.30;61.30;;;;;;5032904;28;20215;-48
2023/11/21 09:04:28;;;;;;;4.27;2.00;;;16.40;61.00;;;;;;5028883;28;20188;-50
2023/11/21 09:06:53;;;;;;;4.17;1.60;;;16.30;60.20;;;;;;5027975;28;20181;-52
2023/11/21 09:09:19;;;;;;;2.60;1.70;;;16.40;60.50;;;;;;5033482;28;20209;-48
2023/11/21 09:11:46;;;;;;;2.37;1.97;;;16.40;60.60;;;;;;5034897;28;20679;-51
2023/11/21 09:14:14;;;;;;;1.50;1.40;;;16.50;60.50;;;;;;5031877;28;20219;-48
2023/11/21 09:16:41;;;;;;;4.13;1.50;;;16.50;60.50;;;;;;5027359;28;20428;-49
2023/11/21 09:19:06;;;;;;;5.87;2.00;;;16.50;60.30;;;;;;5031275;28;20499;-53
2023/11/21 09:21:32;;;;;;;4.03;2.27;;;16.60;60.30;;;;;;5030748;28;20453;-49
2023/11/21 09:23:58;;;;;;;5.67;3.00;;;16.60;60.20;;;;;;5033858;28;20272;-48
2023/11/21 09:26:24;;;;;;;4.20;3.30;;;16.60;60.10;;;;;;5034177;28;20539;-50
2023/11/21 09:28:49;;;;;;;7.13;3.97;;;16.60;59.60;;;;;;5035542;28;20205;-49
2023/11/21 09:31:16;;;;;;;2.60;2.07;;;16.60;59.60;;;;;;5029478;28;20728;-50
2023/11/21 09:33:43;;;;;;;3.87;1.93;;;16.70;59.80;;;;;;5041354;28;20212;-49
2023/11/21 09:36:14;;;;;;;3.23;2.17;;;16.70;60.10;;;;;;5029152;28;20448;-47
2023/11/21 09:38:39;;;;;;;5.03;2.10;;;16.60;60.30;;;;;;5034289;28;20956;-51
2023/11/21 09:41:09;;;;;;;3.63;2.20;;;16.60;60.50;;;;;;5027321;28;20443;-51
2023/11/21 09:43:36;;;;;;;6.70;2.30;;;16.70;60.20;;;;;;5032181;28;20194;-49
2023/11/21 09:46:04;;;;;;;2.00;1.90;;;16.70;59.80;;;;;;5027173;28;20478;-50
2023/11/21 09:48:30;;;;;;;2.17;2.00;;;16.70;59.50;;;;;;5033047;28;20250;-48
2023/11/21 09:50:57;;;;;;;2.70;2.13;;;16.90;60.30;;;;;;5032516;28;20438;-47
2023/11/21 09:53:27;;;;;;;4.97;3.43;;;17.10;60.20;;;;;;5032020;28;20837;-50
2023/11/21 09:55:54;;;;;;;2.23;2.03;;;17.20;57.90;;;;;;5029782;28;20525;-48
2023/11/21 09:58:21;;;;;;;1.80;1.70;;;17.10;58.50;;;;;;5030012;28;20562;-52
2023/11/21 10:00:48;;;;;;;2.63;2.00;;;17.20;59.30;;;;;;5029328;28;20440;-49
2023/11/21 10:03:15;;;;;;;2.40;1.63;;;17.20;59.00;;;;;;5029270;28;20809;-49
2023/11/21 10:05:43;;;;;;;4.03;2.13;;;17.30;58.80;;;;;;5025699;28;20438;-51
2023/11/21 10:08:10;;;;;;;2.03;1.80;;;17.30;59.30;;;;;;5033846;28;20444;-51
2023/11/21 10:10:38;;;;;;;2.37;2.00;;;17.30;58.80;;;;;;5031107;28;21078;-51
2023/11/21 10:13:06;;;;;;;2.87;1.80;;;17.20;59.20;;;;;;5030966;28;20443;-50
2023/11/21 10:15:34;;;;;;;5.33;2.30;;;17.20;59.30;;;;;;5028062;28;20505;-47
2023/11/21 10:18:02;;;;;;;4.70;2.93;;;17.10;59.30;;;;;;5037844;28;20485;-49
2023/11/21 10:20:30;;;;;;;2.67;2.47;;;17.10;59.00;;;;;;5024423;28;20549;-51
2023/11/21 10:22:56;;;;;;;2.60;1.90;;;17.10;58.80;;;;;;5025614;28;20446;-49
2023/11/21 10:25:22;;;;;;;2.10;1.93;;;17.10;58.90;;;;;;5027827;28;20911;-50
2023/11/21 10:27:51;;;;;;;1.10;1.10;;;17.10;59.50;;;;;;5028036;28;20471;-50
2023/11/21 10:30:17;;;;;;;1.43;1.17;;;17.10;59.60;;;;;;5032326;28;20204;-50
2023/11/21 10:32:43;;;;;;;1.77;1.30;;;17.10;59.40;;;;;;5036970;28;20431;-49
2023/11/21 10:35:10;;;;;;;1.13;1.13;;;17.20;59.70;;;;;;5030957;28;20446;-50
2023/11/21 10:37:39;;;;;;;1.60;1.40;;;17.10;59.60;;;;;;5030907;28;20212;-47
2023/11/21 10:40:06;;;;;;;1.30;1.20;;;17.00;59.50;;;;;;5031101;28;20454;-51
2023/11/21 10:42:32;;;;;;;1.57;1.20;;;17.00;59.40;;;;;;5029179;28;20524;-47
2023/11/21 10:44:58;;;;;;;1.10;1.10;;;17.00;59.30;;;;;;5031217;28;20933;-50
2023/11/21 10:47:24;;;;;;;1.93;1.10;;;17.00;59.90;;;;;;5031602;28;20554;-48
2023/11/21 10:49:49;;;;;;;0.90;0.87;;;17.10;60.30;;;;;;5030939;28;20197;-49
2023/11/21 10:52:17;;;;;;;1.00;1.00;;;17.10;60.60;;;;;;5031460;28;20268;-49
2023/11/21 10:54:43;;;;;;;1.30;1.20;;;17.20;60.40;;;;;;5030782;28;20197;-47
2023/11/21 10:57:10;;;;;;;1.77;1.37;;;17.20;59.70;;;;;;5030026;28;20435;-50
2023/11/21 10:59:36;;;;;;;1.93;1.30;;;17.20;59.20;;;;;;5034282;28;20460;-48
2023/11/21 11:02:24;;;;;;;1.47;1.20;;;17.20;59.40;;;;;;5040318;28;20531;-51
2023/11/21 11:04:52;;;;;;;1.93;1.30;;;17.10;59.70;;;;;;5037661;28;20243;-48
2023/11/21 11:07:19;;;;;;;2.00;1.47;;;17.10;59.70;;;;;;5032262;28;20435;-50
2023/11/21 11:09:47;;;;;;;1.40;1.30;;;17.00;60.20;;;;;;5038612;28;20447;-49
2023/11/21 11:12:14;;;;;;;1.00;0.80;;;17.00;60.90;;;;;;5035100;28;20423;-49
2023/11/21 11:14:41;;;;;;;2.93;0.90;;;16.90;61.70;;;;;;5034494;28;20423;-52
2023/11/21 11:17:08;;;;;;;0.80;0.80;;;16.80;61.90;;;;;;5033679;28;20470;-49
2023/11/21 11:19:35;;;;;;;0.70;0.70;;;16.70;62.50;;;;;;5043195;28;20471;-51
2023/11/21 11:22:19;;;;;;;2.33;0.90;;;16.70;62.70;;;;;;5039600;28;20416;-50
2023/11/21 11:25:35;;;;;;;1.03;1.00;;;16.70;62.90;;;;;;5044756;28;20431;-48
2023/11/21 11:28:11;;;;;;;1.50;1.40;;;16.70;63.20;;;;;;5032407;28;20535;-48
2023/11/21 11:31:24;;;;;;;1.50;1.40;;;16.70;63.40;;;;;;5040521;28;20496;-47
2023/11/21 11:34:12;;;;;;;1.00;1.00;;;16.70;63.90;;;;;;5035047;28;20717;-50
2023/11/21 11:36:47;;;;;;;1.60;1.50;;;16.80;64.40;;;;;;5031560;28;21013;-48
2023/11/21 11:39:35;;;;;;;1.97;1.73;;;16.80;64.20;;;;;;5034972;28;20991;-49
2023/11/21 11:42:04;;;;;;;2.30;1.60;;;16.80;63.70;;;;;;5032970;28;20424;-50
2023/11/21 11:44:45;;;;;;;1.57;1.47;;;16.70;64.00;;;;;;5036982;28;20561;-50
2023/11/21 11:47:21;;;;;;;2.03;1.70;;;16.70;64.20;;;;;;5033256;28;20478;-47
2023/11/21 11:50:12;;;;;;;2.17;1.97;;;16.70;64.20;;;;;;5033004;28;21014;-47
2023/11/21 11:52:43;;;;;;;3.67;1.90;;;16.70;64.40;;;;;;5033308;28;20596;-52
2023/11/21 11:55:13;;;;;;;1.50;1.40;;;16.80;64.10;;;;;;5034282;28;20518;-50
2023/11/21 11:57:43;;;;;;;1.37;1.17;;;16.70;64.10;;;;;;5033251;28;20549;-51
2023/11/21 12:00:29;;;;;;;1.10;1.00;;;16.70;63.60;;;;;;5033925;28;20456;-49
2023/11/21 12:02:56;;;;;;;1.83;1.13;;;16.70;62.80;;;;;;5036813;28;20525;-49
2023/11/21 12:05:23;;;;;;;1.30;1.20;;;16.60;62.70;;;;;;5035956;28;20475;-52
2023/11/21 12:07:54;;;;;;;1.97;1.30;;;16.70;63.00;;;;;;5035457;28;20443;-49
2023/11/21 12:10:27;;;;;;;1.63;1.53;;;16.70;63.40;;;;;;5043637;28;20549;-52
2023/11/21 12:12:58;;;;;;;1.53;1.43;;;16.70;62.60;;;;;;5049300;28;20430;-52
2023/11/21 12:15:25;;;;;;;1.67;1.57;;;16.70;62.40;;;;;;5043266;28;20499;-47
2023/11/21 12:17:51;;;;;;;1.50;1.40;;;16.60;62.60;;;;;;5048339;28;20522;-50
2023/11/21 12:20:22;;;;;;;2.00;1.90;;;16.60;62.90;;;;;;5042576;28;20489;-53
2023/11/21 12:22:55;;;;;;;1.60;1.50;;;16.50;63.60;;;;;;5028920;28;20446;-52
2023/11/21 12:25:23;;;;;;;1.63;1.53;;;16.40;64.10;;;;;;5037095;28;20510;-51
2023/11/21 12:27:50;;;;;;;1.40;1.20;;;16.50;64.20;;;;;;5037273;28;20427;-51
2023/11/21 12:30:19;;;;;;;2.20;1.57;;;16.50;64.30;;;;;;5034003;28;20492;-49
2023/11/21 12:32:48;;;;;;;1.67;1.57;;;16.60;64.60;;;;;;5034806;28;20439;-51
2023/11/21 12:35:14;;;;;;;1.70;1.60;;;16.70;64.90;;;;;;5033807;28;20808;-50
2023/11/21 12:37:42;;;;;;;3.70;1.47;;;16.70;64.30;;;;;;5037378;28;20472;-48
2023/11/21 12:40:15;;;;;;;1.73;1.63;;;16.70;64.30;;;;;;5037104;28;20256;-50
2023/11/21 12:42:42;;;;;;;1.80;1.70;;;16.80;64.10;;;;;;5036669;28;20951;-49
2023/11/21 12:45:17;;;;;;;1.83;1.07;;;16.90;64.60;;;;;;5034192;28;20444;-48
2023/11/21 12:47:45;;;;;;;0.90;0.90;;;16.90;64.00;;;;;;5036487;28;20435;-50